Time;durP1;ratioP1;P1;durP2;ratioP2;P2;SDS_P1;SDS_P2;PMS_P1;PMS_P2;Temp;Humidity;BMP_temperature;BMP_pressure;BME280_temperature;BME280_humidity;BME280_pressure;Samples;Min_cycle;Max_cycle;Signal;HPM_P1;HPM_P2
2023/10/01 00:00:52;;;;;;;14.17;12.97;;;16.00;99.90;;;;;;4818947;29;20582;-84
2023/10/01 00:03:22;;;;;;;12.77;11.87;;;16.00;99.90;;;;;;4816617;29;20539;-83
2023/10/01 00:05:51;;;;;;;14.37;13.17;;;15.90;99.90;;;;;;4816717;29;20487;-82
2023/10/01 00:08:20;;;;;;;13.37;12.20;;;15.80;99.90;;;;;;4821902;29;20463;-83
2023/10/01 00:10:49;;;;;;;13.63;12.60;;;15.80;99.90;;;;;;4834228;29;20478;-80
2023/10/01 00:13:20;;;;;;;14.50;13.17;;;15.80;99.90;;;;;;4821078;29;20466;-82
2023/10/01 00:15:49;;;;;;;14.67;13.37;;;15.90;99.90;;;;;;4815659;29;20485;-83
2023/10/01 00:18:18;;;;;;;14.43;13.33;;;15.90;99.90;;;;;;4819703;29;20498;-82
2023/10/01 00:20:48;;;;;;;14.47;13.03;;;15.80;99.90;;;;;;4820991;29;20565;-82
2023/10/01 00:23:16;;;;;;;14.27;13.10;;;15.70;99.90;;;;;;4816930;29;20486;-84
2023/10/01 00:25:45;;;;;;;14.73;13.30;;;15.70;99.90;;;;;;4816027;29;20497;-83
2023/10/01 00:28:14;;;;;;;14.00;12.90;;;15.70;99.90;;;;;;4819453;29;20459;-81
2023/10/01 00:30:42;;;;;;;14.30;13.20;;;15.70;99.90;;;;;;4819047;29;20550;-83
2023/10/01 00:33:11;;;;;;;12.93;12.10;;;15.60;99.90;;;;;;4816567;29;20927;-82
2023/10/01 00:35:40;;;;;;;13.90;12.50;;;15.60;99.90;;;;;;4816750;29;20546;-81
2023/10/01 00:38:11;;;;;;;13.53;12.43;;;15.70;99.90;;;;;;4811970;29;20499;-81
2023/10/01 00:40:43;;;;;;;13.37;12.27;;;15.60;99.90;;;;;;4814832;29;20524;-81
2023/10/01 00:43:13;;;;;;;13.53;12.47;;;15.70;99.90;;;;;;4813777;29;20458;-82
2023/10/01 00:45:41;;;;;;;13.20;12.23;;;15.60;99.90;;;;;;4814661;29;20495;-81
2023/10/01 00:48:11;;;;;;;13.33;12.37;;;15.60;99.90;;;;;;4815982;29;20490;-82
2023/10/01 00:50:39;;;;;;;14.37;13.27;;;15.60;99.90;;;;;;4812169;29;23951;-82
2023/10/01 00:53:09;;;;;;;13.13;12.03;;;15.60;99.90;;;;;;4817150;29;20460;-81
2023/10/01 00:55:39;;;;;;;13.60;12.40;;;15.50;99.90;;;;;;4816825;29;20488;-82
2023/10/01 00:58:10;;;;;;;12.93;12.00;;;15.40;99.90;;;;;;4821950;29;20494;-82
2023/10/01 01:00:50;;;;;;;13.77;12.47;;;15.40;99.90;;;;;;4819673;29;20471;-85
2023/10/01 01:03:22;;;;;;;14.00;12.67;;;15.40;99.90;;;;;;4821616;29;20455;-83
2023/10/01 01:06:12;;;;;;;14.23;12.30;;;15.50;99.90;;;;;;4820044;29;20491;-81
2023/10/01 01:08:52;;;;;;;14.27;13.00;;;15.40;99.90;;;;;;4822679;29;20493;-83
2023/10/01 01:11:30;;;;;;;13.23;12.23;;;15.40;99.90;;;;;;4820831;29;20480;-82
2023/10/01 01:14:01;;;;;;;13.33;12.27;;;15.30;99.90;;;;;;4818006;29;20823;-80
2023/10/01 01:16:29;;;;;;;14.63;13.50;;;15.30;99.90;;;;;;4818680;29;20490;-82
2023/10/01 01:18:58;;;;;;;13.00;12.10;;;15.40;99.90;;;;;;4831475;29;20579;-81
2023/10/01 01:21:26;;;;;;;12.90;11.90;;;15.40;99.90;;;;;;4818879;29;20472;-84
2023/10/01 01:23:57;;;;;;;13.00;12.10;;;15.40;99.90;;;;;;4816915;29;20497;-84
2023/10/01 01:26:25;;;;;;;13.30;12.20;;;15.20;99.90;;;;;;4818607;29;20595;-82
2023/10/01 01:28:54;;;;;;;13.67;12.60;;;15.20;99.90;;;;;;4815975;29;20463;-81
2023/10/01 01:31:28;;;;;;;12.77;11.73;;;15.20;99.90;;;;;;4816374;29;20478;-82
2023/10/01 01:33:57;;;;;;;12.60;11.40;;;15.20;99.90;;;;;;4815452;29;20462;-80
2023/10/01 01:39:42;;;;;;;13.37;12.20;;;15.20;99.90;;;;;;4816641;29;20487;-81
2023/10/01 01:42:26;;;;;;;12.80;11.80;;;15.10;99.90;;;;;;4815736;29;20467;-82
2023/10/01 01:45:19;;;;;;;12.30;11.40;;;15.20;99.90;;;;;;4831672;29;20491;-81
2023/10/01 01:48:21;;;;;;;12.93;11.63;;;15.10;99.90;;;;;;4815015;29;20470;-83
2023/10/01 01:50:54;;;;;;;12.63;11.73;;;15.10;99.90;;;;;;4818909;29;20471;-81
2023/10/01 01:53:41;;;;;;;12.43;11.23;;;15.10;99.90;;;;;;4819619;29;21035;-83
2023/10/01 01:56:18;;;;;;;12.83;11.83;;;15.00;99.90;;;;;;4816003;29;20483;-83
2023/10/01 01:58:55;;;;;;;13.10;11.80;;;15.00;99.90;;;;;;4819310;29;20485;-81
2023/10/01 02:01:29;;;;;;;13.60;12.60;;;14.90;99.90;;;;;;4819418;29;20550;-81
2023/10/01 02:03:58;;;;;;;13.33;12.33;;;14.90;99.90;;;;;;4818591;29;21423;-84
2023/10/01 02:06:31;;;;;;;13.27;11.97;;;14.90;99.90;;;;;;4819674;29;20962;-83
2023/10/01 02:08:59;;;;;;;13.43;12.33;;;14.90;99.90;;;;;;4817793;29;20484;-82
2023/10/01 02:11:47;;;;;;;13.53;12.50;;;15.00;99.90;;;;;;4818533;29;20463;-83
2023/10/01 02:14:40;;;;;;;13.87;12.80;;;15.00;99.90;;;;;;4818309;29;20492;-83
2023/10/01 02:17:25;;;;;;;13.10;12.10;;;14.90;99.90;;;;;;4821086;29;20478;-82
2023/10/01 02:20:27;;;;;;;13.00;11.97;;;14.90;99.90;;;;;;4818158;29;20538;-83
2023/10/01 02:23:26;;;;;;;13.40;12.30;;;14.80;99.90;;;;;;4817820;29;20459;-84
2023/10/01 02:26:00;;;;;;;13.53;12.33;;;14.80;99.90;;;;;;4814756;29;20532;-82
2023/10/01 02:28:36;;;;;;;15.83;14.63;;;14.80;99.90;;;;;;4820439;29;20462;-83
2023/10/01 02:31:08;;;;;;;13.97;12.73;;;14.80;99.90;;;;;;4820042;29;20739;-82
2023/10/01 02:34:00;;;;;;;13.40;12.40;;;14.80;99.90;;;;;;4833236;29;20498;-82
2023/10/01 02:36:35;;;;;;;13.40;12.40;;;14.70;99.90;;;;;;4819748;29;20494;-82
2023/10/01 02:39:27;;;;;;;13.33;12.33;;;14.80;99.90;;;;;;4822603;29;20514;-83
2023/10/01 02:42:21;;;;;;;13.30;12.40;;;14.80;99.90;;;;;;4826335;29;21000;-83
2023/10/01 02:45:00;;;;;;;12.67;11.77;;;14.80;99.90;;;;;;4806235;29;20500;-81
2023/10/01 02:47:31;;;;;;;12.97;11.97;;;14.70;99.90;;;;;;4809928;29;20463;-80
2023/10/01 02:50:14;;;;;;;14.10;13.00;;;14.70;99.90;;;;;;4828465;29;20484;-82
2023/10/01 02:52:44;;;;;;;13.20;12.30;;;14.60;99.90;;;;;;4815299;29;20872;-83
2023/10/01 02:55:18;;;;;;;14.23;13.03;;;14.60;99.90;;;;;;4813968;29;20479;-81
2023/10/01 02:57:50;;;;;;;13.93;12.90;;;14.50;99.90;;;;;;4813600;29;20536;-80
2023/10/01 03:00:30;;;;;;;13.73;12.83;;;14.50;99.90;;;;;;4815568;29;20450;-82
2023/10/01 03:02:59;;;;;;;13.60;12.60;;;14.50;99.90;;;;;;4815116;29;20454;-81
2023/10/01 03:05:28;;;;;;;14.40;13.23;;;14.60;1.00;;;;;;4818856;29;20540;-86
2023/10/01 03:08:03;;;;;;;13.20;12.30;;;14.60;99.90;;;;;;4815323;29;20455;-83
2023/10/01 03:10:32;;;;;;;14.87;13.60;;;14.70;99.90;;;;;;4822433;29;20486;-84
2023/10/01 03:13:02;;;;;;;13.30;12.40;;;14.70;99.90;;;;;;4814767;29;20535;-83
2023/10/01 03:15:35;;;;;;;14.20;13.20;;;14.70;99.90;;;;;;4827808;29;20526;-81
2023/10/01 03:18:34;;;;;;;14.10;13.00;;;14.60;99.90;;;;;;4817104;29;20565;-82
2023/10/01 03:21:07;;;;;;;13.97;12.73;;;14.60;99.90;;;;;;4815771;29;20491;-83
2023/10/01 03:23:34;;;;;;;12.70;11.80;;;14.60;99.90;;;;;;4812136;29;21064;-83
2023/10/01 03:26:04;;;;;;;13.20;12.20;;;14.60;99.90;;;;;;4827755;29;20558;-82
2023/10/01 03:31:21;;;;;;;13.43;12.33;;;14.60;99.90;;;;;;4816481;29;20483;-83
2023/10/01 03:33:53;;;;;;;13.63;12.63;;;14.40;99.90;;;;;;4814826;29;20467;-81
2023/10/01 03:36:32;;;;;;;13.37;12.47;;;14.50;99.90;;;;;;4814241;29;20492;-81
2023/10/01 03:39:25;;;;;;;13.70;12.70;;;14.50;99.90;;;;;;4814381;29;20479;-81
2023/10/01 03:42:17;;;;;;;12.63;11.67;;;14.50;99.90;;;;;;4809943;29;20471;-81
2023/10/01 03:45:20;;;;;;;12.27;11.47;;;14.50;99.90;;;;;;4807680;29;21004;-81
2023/10/01 03:47:59;;;;;;;12.87;11.83;;;14.50;99.90;;;;;;4809388;29;21069;-81
2023/10/01 03:50:46;;;;;;;12.50;11.40;;;14.50;99.90;;;;;;4817701;29;20478;-82
2023/10/01 03:53:25;;;;;;;12.17;11.27;;;14.40;99.90;;;;;;4818385;29;20551;-82
2023/10/01 03:56:09;;;;;;;12.93;12.03;;;14.30;99.90;;;;;;4818719;29;20494;-82
2023/10/01 03:58:45;;;;;;;12.30;11.30;;;14.40;99.90;;;;;;4831564;29;20516;-83
2023/10/01 04:01:26;;;;;;;12.90;11.80;;;14.40;99.90;;;;;;4816007;29;20481;-82
2023/10/01 04:04:00;;;;;;;12.87;11.90;;;14.40;99.90;;;;;;4830956;29;20995;-84
2023/10/01 04:06:30;;;;;;;14.37;13.17;;;14.40;99.90;;;;;;4818924;29;20512;-84
2023/10/01 04:09:00;;;;;;;13.83;12.53;;;14.40;99.90;;;;;;4818191;29;20450;-80
2023/10/01 04:11:49;;;;;;;12.93;11.93;;;14.30;99.90;;;;;;4811532;29;20475;-84
2023/10/01 04:14:18;;;;;;;13.00;12.07;;;14.30;99.90;;;;;;4814501;29;20563;-83
2023/10/01 04:16:47;;;;;;;13.77;12.57;;;14.30;99.90;;;;;;4816334;29;20466;-82
2023/10/01 04:19:18;;;;;;;13.10;12.20;;;14.20;99.90;;;;;;4811720;29;20495;-81
2023/10/01 04:21:50;;;;;;;14.10;13.10;;;14.20;99.90;;;;;;4813467;29;20494;-83
2023/10/01 04:24:21;;;;;;;13.93;12.83;;;14.20;99.90;;;;;;4816288;29;20476;-84
2023/10/01 04:26:50;;;;;;;12.57;11.60;;;14.20;99.90;;;;;;4812054;29;20486;-82
2023/10/01 04:29:24;;;;;;;13.93;12.73;;;14.20;99.90;;;;;;4812273;29;20466;-81
2023/10/01 04:32:01;;;;;;;12.63;11.70;;;14.20;1.00;;;;;;4812271;29;20481;-83
2023/10/01 04:34:30;;;;;;;14.07;12.80;;;14.20;1.00;;;;;;4810659;29;20470;-84
2023/10/01 04:36:59;;;;;;;12.30;11.30;;;14.20;1.00;;;;;;4816936;29;20462;-83
2023/10/01 04:39:27;;;;;;;13.20;12.10;;;14.20;1.00;;;;;;4817402;29;20526;-82
2023/10/01 04:41:59;;;;;;;12.63;11.63;;;14.20;99.90;;;;;;4817190;29;20455;-81
2023/10/01 04:44:30;;;;;;;13.37;12.20;;;14.20;1.00;;;;;;4815540;29;20474;-84
2023/10/01 04:47:24;;;;;;;14.00;12.90;;;14.10;1.00;;;;;;4814731;29;20467;-83
2023/10/01 04:49:51;;;;;;;12.67;11.67;;;14.10;1.00;;;;;;4812301;29;20451;-82
2023/10/01 04:52:24;;;;;;;14.60;13.40;;;14.10;1.00;;;;;;4812125;29;20475;-83
2023/10/01 04:54:52;;;;;;;12.80;11.70;;;14.10;1.00;;;;;;4813662;29;21131;-80
2023/10/01 04:57:20;;;;;;;13.60;12.60;;;14.10;1.00;;;;;;4824261;29;20471;-82
2023/10/01 04:59:57;;;;;;;14.10;12.98;;;14.10;1.00;;;;;;4821352;29;21102;-81
2023/10/01 05:02:29;;;;;;;14.00;12.80;;;13.90;1.00;;;;;;4830842;29;20493;-83
2023/10/01 05:05:09;;;;;;;14.43;13.17;;;13.70;1.00;;;;;;4830021;29;20230;-82
2023/10/01 05:08:12;;;;;;;13.30;12.23;;;14.00;1.00;;;;;;4826154;29;20782;-82
2023/10/01 05:11:16;;;;;;;14.23;12.90;;;14.20;1.00;;;;;;4825056;29;20534;-82
2023/10/01 05:13:47;;;;;;;13.47;12.27;;;14.20;99.90;;;;;;4820987;29;20465;-82
2023/10/01 05:16:18;;;;;;;13.50;12.30;;;14.20;1.00;;;;;;4816250;29;21108;-84
2023/10/01 05:18:48;;;;;;;12.93;12.10;;;14.10;1.00;;;;;;4819157;29;21524;-82
2023/10/01 05:21:18;;;;;;;14.03;12.93;;;14.20;1.00;;;;;;4819463;29;20550;-83
2023/10/01 05:23:48;;;;;;;15.07;13.87;;;14.10;99.90;;;;;;4818103;29;20474;-83
2023/10/01 05:26:20;;;;;;;12.90;11.90;;;14.10;99.90;;;;;;4815007;29;20553;-82
2023/10/01 05:28:49;;;;;;;14.80;13.57;;;14.10;99.90;;;;;;4813812;29;21243;-81
2023/10/01 05:31:24;;;;;;;14.23;13.23;;;13.90;1.00;;;;;;4819386;29;20498;-81
2023/10/01 05:33:58;;;;;;;15.60;14.00;;;13.90;1.00;;;;;;4812681;29;20492;-83
2023/10/01 05:36:29;;;;;;;13.70;12.60;;;13.90;1.00;;;;;;4818481;29;20483;-84
2023/10/01 05:39:00;;;;;;;13.93;12.60;;;13.90;1.00;;;;;;4816138;29;20451;-82
2023/10/01 05:41:32;;;;;;;13.80;12.60;;;13.90;1.00;;;;;;4815005;29;20561;-82
2023/10/01 05:44:04;;;;;;;14.43;13.40;;;14.00;1.00;;;;;;4818563;29;20519;-83
2023/10/01 05:46:32;;;;;;;14.47;13.27;;;14.00;1.00;;;;;;4819754;29;20474;-83
2023/10/01 05:49:01;;;;;;;14.90;13.80;;;14.00;1.00;;;;;;4815327;29;20467;-83
2023/10/01 05:51:51;;;;;;;15.93;14.33;;;14.00;1.00;;;;;;4819088;29;20466;-84
2023/10/01 05:54:50;;;;;;;14.27;12.97;;;14.00;1.00;;;;;;4818338;29;20849;-83
2023/10/01 05:57:46;;;;;;;14.37;13.33;;;14.10;1.00;;;;;;4817086;29;20478;-80
2023/10/01 06:00:45;;;;;;;13.90;12.80;;;14.00;1.00;;;;;;4810060;29;20934;-77
2023/10/01 06:03:41;;;;;;;14.90;13.60;;;14.10;1.00;;;;;;4808830;29;20981;-80
2023/10/01 06:06:27;;;;;;;13.60;12.50;;;14.10;1.00;;;;;;4806183;29;20973;-80
2023/10/01 06:09:14;;;;;;;14.07;12.83;;;14.20;1.00;;;;;;4809769;29;20462;-78
2023/10/01 06:11:51;;;;;;;13.33;12.37;;;14.20;1.00;;;;;;4812278;29;20474;-79
2023/10/01 06:14:39;;;;;;;13.47;12.47;;;14.20;1.00;;;;;;4809600;29;20466;-80
2023/10/01 06:17:42;;;;;;;14.50;13.20;;;14.20;1.00;;;;;;4806638;29;20459;-81
2023/10/01 06:20:38;;;;;;;13.70;12.60;;;14.20;1.00;;;;;;4807845;29;20494;-79
2023/10/01 06:23:23;;;;;;;13.63;12.67;;;14.30;1.00;;;;;;4810880;29;20500;-78
2023/10/01 06:26:18;;;;;;;13.63;12.73;;;14.40;1.00;;;;;;4809462;29;20496;-80
2023/10/01 06:28:56;;;;;;;14.40;13.30;;;14.50;1.00;;;;;;4810050;29;20497;-79
2023/10/01 06:31:27;;;;;;;14.00;12.87;;;14.50;1.00;;;;;;4808039;29;20471;-80
2023/10/01 06:33:56;;;;;;;14.20;13.00;;;14.50;1.00;;;;;;4808093;29;20487;-80
2023/10/01 06:36:26;;;;;;;14.33;13.23;;;14.50;1.00;;;;;;4809319;29;20486;-79
2023/10/01 06:38:54;;;;;;;14.30;13.27;;;14.50;1.00;;;;;;4808915;29;20615;-80
2023/10/01 06:41:28;;;;;;;14.10;12.90;;;14.60;1.00;;;;;;4806665;29;20479;-80
2023/10/01 06:44:00;;;;;;;14.27;13.27;;;14.60;1.00;;;;;;4805986;29;20470;-80
2023/10/01 06:46:29;;;;;;;14.73;13.50;;;14.60;1.00;;;;;;4821917;29;20488;-82
2023/10/01 06:49:08;;;;;;;13.83;12.73;;;14.50;1.00;;;;;;4805816;29;20477;-81
2023/10/01 06:51:47;;;;;;;14.10;13.00;;;14.60;1.00;;;;;;4808266;29;20929;-80
2023/10/01 06:54:30;;;;;;;15.20;13.97;;;14.70;1.00;;;;;;4807586;29;20468;-78
2023/10/01 06:57:16;;;;;;;14.00;13.00;;;14.80;1.00;;;;;;4809414;29;21008;-75
2023/10/01 06:59:45;;;;;;;14.67;13.67;;;14.90;1.00;;;;;;4810157;29;20490;-73
2023/10/01 07:02:13;;;;;;;13.80;12.73;;;14.90;1.00;;;;;;4810499;29;20554;-74
2023/10/01 07:04:42;;;;;;;14.47;13.27;;;14.90;1.00;;;;;;4805076;29;21306;-74
2023/10/01 07:07:21;;;;;;;14.83;13.63;;;15.00;1.00;;;;;;4805669;29;20496;-78
2023/10/01 07:09:49;;;;;;;14.57;13.37;;;15.10;1.00;;;;;;4808339;29;20996;-77
2023/10/01 07:12:19;;;;;;;15.53;14.17;;;15.20;1.00;;;;;;4808871;29;20557;-79
2023/10/01 07:14:50;;;;;;;15.00;13.80;;;15.20;1.00;;;;;;4804792;29;20503;-78
2023/10/01 07:17:23;;;;;;;14.60;13.70;;;15.30;1.00;;;;;;4808072;29;21310;-79
2023/10/01 07:20:00;;;;;;;15.63;14.43;;;15.40;1.00;;;;;;4809599;29;20466;-77
2023/10/01 07:22:31;;;;;;;15.30;14.13;;;15.50;1.00;;;;;;4809703;29;20530;-77
2023/10/01 07:25:00;;;;;;;15.33;13.90;;;15.60;1.00;;;;;;4807041;29;21091;-78
2023/10/01 07:27:30;;;;;;;15.90;14.60;;;15.80;1.00;;;;;;4810237;29;20539;-78
2023/10/01 07:30:00;;;;;;;15.93;14.60;;;15.80;1.00;;;;;;4822976;29;20464;-77
2023/10/01 07:32:41;;;;;;;14.53;13.50;;;15.90;1.00;;;;;;4810670;29;21245;-78
2023/10/01 07:35:10;;;;;;;15.70;14.37;;;16.10;1.00;;;;;;4807348;29;20479;-77
2023/10/01 07:37:41;;;;;;;14.60;13.70;;;16.30;1.00;;;;;;4806668;29;20993;-77
2023/10/01 07:40:13;;;;;;;15.57;14.37;;;16.50;1.00;;;;;;4807988;29;21015;-77
2023/10/01 07:42:47;;;;;;;15.50;14.20;;;16.70;99.90;;;;;;4806749;29;20470;-76
2023/10/01 07:45:16;;;;;;;14.23;13.20;;;17.00;99.90;;;;;;4807968;29;20478;-77
2023/10/01 07:47:44;;;;;;;15.80;14.57;;;17.40;99.90;;;;;;4803980;29;21491;-77
2023/10/01 07:50:13;;;;;;;15.73;14.63;;;17.80;99.90;;;;;;4802517;29;20962;-78
2023/10/01 07:52:42;;;;;;;15.50;14.43;;;18.30;99.90;;;;;;4806836;29;20468;-78
2023/10/01 07:58:16;;;;;;;15.40;14.20;;;19.20;99.90;;;;;;4804778;29;20482;-78
2023/10/01 08:00:43;;;;;;;15.00;14.10;;;19.70;99.90;;;;;;4813809;29;20490;-78
2023/10/01 08:03:32;;;;;;;15.70;14.40;;;20.30;99.90;;;;;;4801662;29;20463;-79
2023/10/01 08:06:16;;;;;;;15.23;14.10;;;20.60;99.90;;;;;;4805847;29;20477;-78
2023/10/01 08:08:47;;;;;;;15.63;14.20;;;21.00;99.90;;;;;;4806393;29;20458;-78
2023/10/01 08:13:59;;;;;;;15.40;14.50;;;21.80;99.90;;;;;;4800470;29;21534;-78
2023/10/01 08:16:27;;;;;;;15.30;14.27;;;22.10;99.90;;;;;;4807682;29;20483;-79
2023/10/01 08:18:58;;;;;;;15.20;14.10;;;22.40;99.90;;;;;;4806292;29;20478;-79
2023/10/01 08:21:36;;;;;;;14.87;13.87;;;22.70;99.90;;;;;;4808864;29;20500;-80
2023/10/01 08:24:09;;;;;;;15.40;14.33;;;23.10;99.90;;;;;;4802351;29;20455;-78
2023/10/01 08:26:43;;;;;;;14.23;13.17;;;23.40;99.90;;;;;;4808956;29;20487;-78
2023/10/01 08:29:15;;;;;;;16.17;14.67;;;23.60;99.90;;;;;;4810116;29;20463;-79
2023/10/01 08:35:01;;;;;;;14.37;13.33;;;24.40;99.90;;;;;;4810913;29;20474;-80
2023/10/01 08:37:22;;;;;;;14.27;13.37;;;24.70;99.90;;;;;;4809642;29;20473;-79
2023/10/01 08:39:54;;;;;;;14.00;13.00;;;24.70;99.90;;;;;;4810694;29;21080;-78
2023/10/01 08:42:28;;;;;;;14.00;13.00;;;25.00;99.90;;;;;;4809844;29;20582;-79
2023/10/01 08:45:03;;;;;;;13.47;12.30;;;25.20;99.90;;;;;;4804001;29;20638;-78
2023/10/01 08:47:34;;;;;;;13.67;12.53;;;25.50;99.90;;;;;;4806535;29;20477;-79
2023/10/01 08:50:26;;;;;;;13.67;12.57;;;25.90;99.90;;;;;;4803500;29;20486;-78
2023/10/01 08:52:56;;;;;;;15.07;13.87;;;26.10;99.90;;;;;;4803557;29;20548;-79
2023/10/01 08:55:35;;;;;;;14.10;12.90;;;26.50;99.90;;;;;;4806223;29;20463;-78
2023/10/01 08:58:15;;;;;;;13.50;12.37;;;26.70;99.90;;;;;;4807771;29;20619;-79
2023/10/01 09:00:49;;;;;;;12.97;11.87;;;27.20;99.90;;;;;;4807645;29;20842;-79
2023/10/01 09:03:28;;;;;;;13.50;12.30;;;27.50;99.90;;;;;;4820741;29;20472;-78
2023/10/01 09:06:06;;;;;;;12.73;11.70;;;27.80;99.90;;;;;;4808736;29;20500;-78
2023/10/01 09:08:42;;;;;;;11.87;11.07;;;28.30;99.90;;;;;;4807349;29;20470;-79
2023/10/01 09:11:13;;;;;;;13.27;12.10;;;28.80;99.90;;;;;;4806682;29;20499;-79
2023/10/01 09:13:54;;;;;;;13.07;11.90;;;29.30;99.90;;;;;;4808256;29;20478;-78
2023/10/01 09:16:32;;;;;;;11.60;10.80;;;29.50;99.90;;;;;;4808878;29;21119;-79
2023/10/01 09:19:29;;;;;;;12.87;11.87;;;29.80;99.90;;;;;;4808255;29;20477;-79
2023/10/01 09:21:58;;;;;;;11.80;10.97;;;30.20;99.90;;;;;;4810639;29;21051;-80
2023/10/01 09:24:34;;;;;;;11.70;10.70;;;30.40;99.90;;;;;;4809918;29;20496;-79
2023/10/01 09:27:08;;;;;;;12.27;11.10;;;30.80;99.90;;;;;;4809181;29;20469;-80
2023/10/01 09:29:44;;;;;;;11.37;10.50;;;31.10;99.90;;;;;;4812190;29;20833;-79
2023/10/01 09:32:19;;;;;;;10.80;9.80;;;30.90;99.90;;;;;;4809522;29;20458;-79
2023/10/01 09:34:58;;;;;;;11.57;10.47;;;31.10;99.90;;;;;;4809240;29;20590;-79
2023/10/01 09:37:35;;;;;;;11.17;10.17;;;31.30;99.90;;;;;;4809259;29;20477;-79
2023/10/01 09:40:13;;;;;;;12.27;11.07;;;31.40;99.90;;;;;;4804472;29;20486;-79
2023/10/01 09:42:45;;;;;;;11.40;10.30;;;31.80;99.90;;;;;;4803296;29;20492;-80
2023/10/01 09:45:27;;;;;;;11.23;10.27;;;31.60;99.90;;;;;;4807782;29;21051;-80
2023/10/01 09:48:09;;;;;;;11.70;10.70;;;31.10;99.90;;;;;;4806877;29;20467;-79
2023/10/01 09:50:41;;;;;;;10.23;9.33;;;30.60;99.90;;;;;;4809104;29;20497;-79
2023/10/01 09:53:13;;;;;;;9.80;9.00;;;29.90;99.90;;;;;;4809702;29;20445;-79
2023/10/01 09:55:55;;;;;;;10.63;9.63;;;29.30;99.90;;;;;;4807519;29;20492;-81
2023/10/01 09:58:25;;;;;;;12.47;11.10;;;29.00;99.90;;;;;;4807990;29;20469;-79
2023/10/01 10:00:55;;;;;;;12.03;10.93;;;28.50;99.90;;;;;;4819986;29;20468;-80
2023/10/01 10:03:25;;;;;;;11.67;10.70;;;28.40;99.90;;;;;;4807414;29;20498;-80
2023/10/01 10:05:54;;;;;;;12.53;11.23;;;28.00;99.90;;;;;;4807985;29;20508;-80
2023/10/01 10:08:26;;;;;;;11.93;10.80;;;27.90;99.90;;;;;;4809407;29;20525;-80
2023/10/01 10:11:02;;;;;;;11.67;10.67;;;27.80;99.90;;;;;;4810907;29;20527;-80
2023/10/01 10:13:38;;;;;;;12.33;11.13;;;27.80;99.90;;;;;;4808295;29;20540;-79
2023/10/01 10:19:12;;;;;;;10.77;9.77;;;27.80;99.90;;;;;;4807410;29;20839;-79
2023/10/01 10:22:16;;;;;;;12.40;11.40;;;28.10;99.90;;;;;;4810373;29;20507;-79
2023/10/01 10:24:54;;;;;;;12.40;11.30;;;28.30;99.90;;;;;;4810789;29;20561;-79
2023/10/01 10:27:48;;;;;;;13.37;11.47;;;28.20;99.90;;;;;;4811305;29;20470;-80
2023/10/01 10:30:16;;;;;;;12.13;10.93;;;27.90;99.90;;;;;;4809424;29;20474;-80
2023/10/01 10:33:30;;;;;;;12.60;11.60;;;28.00;99.90;;;;;;4811669;29;20539;-79
2023/10/01 10:36:54;;;;;;;11.53;10.43;;;28.10;99.90;;;;;;4823222;29;20510;-79
2023/10/01 10:44:08;;;;;;;13.33;10.57;;;28.40;99.90;;;;;;4806244;29;20497;-79
2023/10/01 10:47:26;;;;;;;11.53;10.40;;;28.40;99.90;;;;;;4809449;29;20466;-79
2023/10/01 10:50:11;;;;;;;12.40;11.40;;;28.40;99.90;;;;;;4801372;29;20496;-79
2023/10/01 10:52:57;;;;;;;12.00;10.80;;;28.80;99.90;;;;;;4807337;29;20493;-78
2023/10/01 10:55:36;;;;;;;12.97;11.63;;;29.10;99.90;;;;;;4804431;29;20575;-78
2023/10/01 10:58:11;;;;;;;12.43;11.23;;;29.30;99.90;;;;;;4808770;29;20483;-78
2023/10/01 11:00:43;;;;;;;12.77;11.73;;;29.30;99.90;;;;;;4804454;29;20577;-79
2023/10/01 11:03:11;;;;;;;13.27;11.30;;;29.20;99.90;;;;;;4821170;29;20490;-79
2023/10/01 11:05:49;;;;;;;12.33;11.23;;;29.40;99.90;;;;;;4804001;29;20897;-78
2023/10/01 11:08:25;;;;;;;12.00;11.10;;;29.60;99.90;;;;;;4807647;29;20470;-78
2023/10/01 11:10:55;;;;;;;12.67;11.47;;;29.80;99.90;;;;;;4810342;29;21239;-78
2023/10/01 11:13:42;;;;;;;13.20;11.90;;;30.00;99.90;;;;;;4808733;29;20466;-78
2023/10/01 11:16:15;;;;;;;12.80;11.60;;;29.60;99.90;;;;;;4804521;29;20482;-78
2023/10/01 11:18:44;;;;;;;14.90;11.30;;;28.90;99.90;;;;;;4805886;29;21033;-78
2023/10/01 11:21:20;;;;;;;13.07;11.83;;;28.50;99.90;;;;;;4809784;29;20825;-78
2023/10/01 11:23:53;;;;;;;12.73;11.63;;;28.10;99.90;;;;;;4805136;29;20525;-78
2023/10/01 11:26:30;;;;;;;11.60;10.60;;;28.00;99.90;;;;;;4805945;29;20489;-78
2023/10/01 11:29:00;;;;;;;12.27;11.07;;;27.80;99.90;;;;;;4807095;29;20476;-77
2023/10/01 11:31:31;;;;;;;11.70;10.60;;;27.50;99.90;;;;;;4819088;29;20493;-78
2023/10/01 11:34:03;;;;;;;12.40;11.30;;;27.40;99.90;;;;;;4804222;29;20471;-78
2023/10/01 11:36:38;;;;;;;11.83;10.73;;;27.40;99.90;;;;;;4807224;29;20484;-79
2023/10/01 11:39:16;;;;;;;15.67;14.17;;;27.40;99.90;;;;;;4805958;29;20569;-78
2023/10/01 11:41:43;;;;;;;14.30;12.80;;;27.50;99.90;;;;;;4806957;29;20515;-78
2023/10/01 11:44:25;;;;;;;19.53;13.83;;;27.40;99.90;;;;;;4805210;29;20590;-78
2023/10/01 11:46:58;;;;;;;12.93;11.63;;;27.40;99.90;;;;;;4807788;29;20471;-77
2023/10/01 11:49:32;;;;;;;11.90;10.80;;;27.20;99.90;;;;;;4806945;29;20462;-78
2023/10/01 11:52:21;;;;;;;14.60;11.90;;;27.20;99.90;;;;;;4821096;29;20473;-77
2023/10/01 11:54:53;;;;;;;13.37;12.07;;;27.20;99.90;;;;;;4806000;29;20493;-77
2023/10/01 11:57:25;;;;;;;15.37;14.17;;;27.20;99.90;;;;;;4821930;29;20481;-79
2023/10/01 11:59:56;;;;;;;14.53;12.20;;;27.00;99.90;;;;;;4805740;29;20866;-78
2023/10/01 12:02:27;;;;;;;19.00;17.07;;;27.10;99.90;;;;;;4805541;29;20571;-78
2023/10/01 12:04:59;;;;;;;12.67;10.77;;;27.00;99.90;;;;;;4808441;29;21420;-77
2023/10/01 12:07:32;;;;;;;12.63;11.40;;;27.10;99.90;;;;;;4811234;29;20469;-78
2023/10/01 12:10:04;;;;;;;11.13;10.10;;;27.10;99.90;;;;;;4810785;29;20471;-79
2023/10/01 12:12:36;;;;;;;12.00;10.90;;;27.10;99.90;;;;;;4810465;29;20470;-79
2023/10/01 12:17:52;;;;;;;11.27;10.13;;;26.90;99.90;;;;;;4808089;29;20715;-79
2023/10/01 12:20:23;;;;;;;11.73;10.73;;;26.70;99.90;;;;;;4809629;29;20472;-78
2023/10/01 12:23:10;;;;;;;12.83;11.50;;;26.90;99.90;;;;;;4813275;29;20872;-79
2023/10/01 12:25:46;;;;;;;15.20;13.80;;;26.90;99.90;;;;;;4805168;29;20491;-79
2023/10/01 12:28:18;;;;;;;15.03;13.53;;;26.90;99.90;;;;;;4810634;29;20470;-79
2023/10/01 12:30:57;;;;;;;12.90;11.67;;;26.80;99.90;;;;;;4810722;29;20563;-78
2023/10/01 12:33:38;;;;;;;13.13;11.80;;;26.50;99.90;;;;;;4808515;29;20500;-79
2023/10/01 12:36:42;;;;;;;13.13;12.13;;;26.50;99.90;;;;;;4809506;29;22263;-84
2023/10/01 12:39:17;;;;;;;12.40;11.35;;;26.40;99.90;;;;;;4810330;29;20449;-78
2023/10/01 12:41:56;;;;;;;12.33;11.23;;;26.60;99.90;;;;;;4813887;29;20248;-81
2023/10/01 12:44:25;;;;;;;12.60;11.40;;;26.70;99.90;;;;;;4811165;29;20837;-78
2023/10/01 12:46:54;;;;;;;11.47;10.47;;;26.70;99.90;;;;;;4811914;29;20607;-82
2023/10/01 12:49:24;;;;;;;12.20;11.00;;;26.50;99.90;;;;;;4812540;29;20491;-80
2023/10/01 12:55:12;;;;;;;12.20;11.20;;;26.50;99.90;;;;;;4810000;29;20266;-81
2023/10/01 12:58:35;;;;;;;18.17;16.40;;;26.70;99.90;;;;;;4826694;29;20471;-81
2023/10/01 13:01:31;;;;;;;12.90;11.57;;;26.60;99.90;;;;;;4827944;29;20494;-82
2023/10/01 13:04:30;;;;;;;14.30;12.90;;;26.40;99.90;;;;;;4811541;29;20496;-81
2023/10/01 13:07:35;;;;;;;13.13;11.93;;;26.20;99.90;;;;;;4812055;29;20463;-82
2023/10/01 13:10:35;;;;;;;15.23;13.73;;;26.40;99.90;;;;;;4810718;29;20562;-80
2023/10/01 13:14:17;;;;;;;12.77;11.63;;;26.40;99.90;;;;;;4809566;29;20812;-80
2023/10/01 13:17:43;;;;;;;12.50;11.37;;;26.40;99.90;;;;;;4811239;29;20475;-82
2023/10/01 13:20:41;;;;;;;13.70;12.53;;;26.30;99.90;;;;;;4815051;29;20961;-80
2023/10/01 13:23:12;;;;;;;12.47;11.30;;;26.20;99.90;;;;;;4814934;29;20586;-80
2023/10/01 13:25:47;;;;;;;12.13;11.13;;;26.10;99.90;;;;;;4811299;29;20484;-80
2023/10/01 13:28:19;;;;;;;12.53;11.33;;;26.20;99.90;;;;;;4811794;29;20491;-80
2023/10/01 13:33:53;;;;;;;10.97;9.87;;;26.20;99.90;;;;;;4810007;29;20823;-81
2023/10/01 13:36:25;;;;;;;14.43;13.03;;;26.20;99.90;;;;;;4811964;29;20552;-80
2023/10/01 13:39:12;;;;;;;16.90;14.90;;;26.30;99.90;;;;;;4813659;29;20459;-81
2023/10/01 14:12:11;;;;;;;13.13;11.90;;;26.10;99.90;;;;;;4807518;29;20492;-82
2023/10/01 14:14:43;;;;;;;11.63;10.63;;;26.10;99.90;;;;;;4805896;29;20483;-82
2023/10/01 14:17:14;;;;;;;13.30;12.00;;;26.00;99.90;;;;;;4804034;29;20484;-82
2023/10/01 14:23:39;;;;;;;11.40;10.43;;;26.00;99.90;;;;;;4798200;29;20486;-82